createdAt,value
2022-11-02T00:01:06.604Z,10.33
2022-11-02T00:03:36.588Z,10.77
2022-11-02T00:06:05.407Z,11.31
2022-11-02T00:08:34.078Z,10.82
2022-11-02T00:11:02.693Z,10.89
2022-11-02T00:13:31.027Z,10.97
2022-11-02T00:16:02.566Z,10.96
2022-11-02T00:18:31.384Z,10.39
2022-11-02T00:21:01.645Z,10.58
2022-11-02T00:23:31.041Z,10.67
2022-11-02T00:26:02.368Z,10.27
2022-11-02T00:28:31.253Z,10.16
2022-11-02T00:30:59.915Z,10.22
2022-11-02T00:33:28.689Z,10.43
2022-11-02T00:35:57.688Z,10.70
2022-11-02T00:38:27.650Z,10.31
2022-11-02T00:40:55.914Z,10.45
2022-11-02T00:43:24.517Z,10.14
2022-11-02T00:45:53.130Z,9.84
2022-11-02T00:48:24.050Z,10.16
2022-11-02T00:50:52.888Z,9.95
2022-11-02T00:53:24.591Z,10.15
2022-11-02T00:55:55.764Z,10.29
2022-11-02T00:58:24.364Z,10.53
2022-11-02T01:00:53.520Z,10.29
2022-11-02T01:03:22.128Z,10.62
2022-11-02T01:05:50.709Z,10.35
2022-11-02T01:08:19.398Z,10.63
2022-11-02T01:10:48.500Z,10.45
2022-11-02T01:13:19.748Z,10.76
2022-11-02T01:15:48.428Z,10.61
2022-11-02T01:18:17.084Z,10.83
2022-11-02T01:20:45.788Z,10.86
2022-11-02T01:23:14.393Z,10.94
2022-11-02T01:25:46.971Z,11.06
2022-11-02T01:28:15.618Z,10.68
2022-11-02T01:30:48.090Z,10.32
2022-11-02T01:33:16.784Z,10.42
2022-11-02T01:35:45.413Z,10.49
2022-11-02T01:38:14.020Z,10.40
2022-11-02T01:40:42.475Z,10.48
2022-11-02T01:43:21.554Z,10.98
2022-11-02T01:45:53.059Z,10.90
2022-11-02T01:48:26.038Z,10.45
2022-11-02T01:50:55.337Z,10.47
2022-11-02T01:53:24.189Z,10.92
2022-11-02T01:55:52.876Z,10.41
2022-11-02T01:58:21.612Z,10.46
2022-11-02T02:00:51.880Z,10.53
2022-11-02T02:03:22.699Z,10.62
2022-11-02T02:05:55.532Z,10.96
2022-11-02T02:08:26.471Z,11.27
2022-11-02T02:10:57.715Z,11.22
2022-11-02T02:13:28.835Z,11.46
2022-11-02T02:16:06.576Z,11.50
2022-11-02T02:18:40.362Z,11.36
2022-11-02T02:21:22.377Z,11.52
2022-11-02T02:24:26.246Z,11.43
2022-11-02T02:27:07.162Z,11.09
2022-11-02T02:29:44.229Z,11.32
2022-11-02T02:32:17.847Z,11.07
2022-11-02T02:34:51.626Z,11.20
2022-11-02T02:37:24.029Z,11.21
2022-11-02T02:39:58.313Z,11.69
2022-11-02T02:42:31.567Z,11.23
2022-11-02T02:45:08.069Z,11.12
2022-11-02T02:47:37.087Z,11.12
2022-11-02T02:50:09.558Z,11.02
2022-11-02T02:52:38.889Z,11.48
2022-11-02T02:55:09.439Z,10.96
2022-11-02T02:57:38.987Z,11.31
2022-11-02T03:00:14.360Z,11.65
2022-11-02T03:02:44.522Z,11.30
2022-11-02T03:05:26.953Z,11.45
2022-11-02T03:07:56.624Z,10.93
2022-11-02T03:10:28.425Z,11.02
2022-11-02T03:13:07.671Z,11.13
2022-11-02T03:15:40.545Z,11.01
2022-11-02T03:18:16.084Z,11.30
2022-11-02T03:20:56.359Z,11.25
2022-11-02T03:23:28.920Z,11.36
2022-11-02T03:26:03.797Z,11.07
2022-11-02T03:28:51.741Z,11.36
2022-11-02T03:31:28.618Z,11.10
2022-11-02T03:34:02.169Z,11.11
2022-11-02T03:36:34.012Z,11.10
2022-11-02T03:39:07.890Z,11.09
2022-11-02T03:41:41.642Z,10.82
2022-11-02T03:44:15.048Z,11.07
2022-11-02T03:46:45.510Z,10.82
2022-11-02T03:49:19.840Z,10.77
2022-11-02T03:51:50.840Z,11.02
2022-11-02T03:54:24.652Z,11.30
2022-11-02T03:56:56.027Z,11.33
2022-11-02T03:59:24.814Z,11.13
2022-11-02T04:01:54.872Z,10.91
2022-11-02T04:04:25.623Z,11.10
2022-11-02T04:06:55.652Z,11.32
2022-11-02T04:09:24.395Z,11.50
2022-11-02T04:12:10.975Z,11.04
2022-11-02T04:14:40.209Z,11.39
2022-11-02T04:17:37.256Z,11.47
2022-11-02T04:20:12.344Z,11.38
2022-11-02T04:23:03.866Z,11.14
2022-11-02T04:25:32.576Z,11.14
2022-11-02T04:28:08.411Z,11.29
2022-11-02T04:30:41.791Z,10.83
2022-11-02T04:33:29.484Z,11.05
2022-11-02T04:36:06.317Z,11.69
2022-11-02T04:38:40.750Z,11.15
2022-11-02T04:41:45.580Z,11.67
2022-11-02T04:44:30.675Z,11.69
2022-11-02T04:47:06.240Z,11.63
2022-11-02T04:49:37.766Z,11.45
2022-11-02T04:52:10.507Z,11.63
2022-11-02T04:54:44.494Z,11.79
2022-11-02T04:57:13.333Z,11.36
2022-11-02T04:59:42.164Z,11.26
2022-11-02T05:02:10.943Z,11.54
2022-11-02T05:04:41.323Z,11.43
2022-11-02T05:07:10.825Z,11.55
2022-11-02T05:09:42.463Z,11.50
2022-11-02T05:12:12.327Z,11.25
2022-11-02T05:14:41.740Z,11.13
2022-11-02T05:17:10.384Z,11.37
2022-11-02T05:19:41.635Z,11.28
2022-11-02T05:22:10.939Z,11.24
2022-11-02T05:24:40.320Z,11.49
2022-11-02T05:27:11.212Z,11.51
2022-11-02T05:29:40.862Z,11.14
2022-11-02T05:32:09.718Z,11.40
2022-11-02T05:34:39.225Z,11.47
2022-11-02T05:37:10.895Z,11.71
2022-11-02T05:39:39.611Z,11.76
2022-11-02T05:42:08.245Z,11.38
2022-11-02T05:44:38.158Z,11.70
2022-11-02T05:47:07.156Z,11.74
2022-11-02T05:49:35.882Z,11.84
2022-11-02T05:52:05.199Z,11.76
2022-11-02T05:54:35.268Z,12.18
2022-11-02T05:57:03.919Z,11.99
2022-11-02T05:59:32.919Z,11.39
2022-11-02T06:02:01.591Z,11.43
2022-11-02T06:04:31.043Z,11.23
2022-11-02T06:06:59.717Z,11.47
2022-11-02T06:09:28.354Z,11.63
2022-11-02T06:11:58.736Z,11.94
2022-11-02T06:14:27.110Z,11.37
2022-11-02T06:16:55.450Z,11.30
2022-11-02T06:19:24.116Z,11.26
2022-11-02T06:21:52.811Z,11.73
2022-11-02T06:24:21.563Z,12.00
2022-11-02T06:26:50.163Z,11.01
2022-11-02T06:29:20.922Z,11.52
2022-11-02T06:31:49.329Z,11.41
2022-11-02T06:34:18.022Z,11.58
2022-11-02T06:36:46.706Z,11.58
2022-11-02T06:39:15.337Z,11.12
2022-11-02T06:41:43.983Z,11.53
2022-11-02T06:44:12.609Z,11.90
2022-11-02T06:46:42.276Z,12.21
2022-11-02T06:49:10.853Z,11.76
2022-11-02T06:51:39.547Z,11.41
2022-11-02T06:54:08.956Z,11.98
2022-11-02T06:56:37.682Z,11.82
2022-11-02T06:59:06.291Z,12.18
2022-11-02T07:01:35.430Z,12.43
2022-11-02T07:04:06.031Z,12.69
2022-11-02T07:06:34.725Z,12.37
2022-11-02T07:09:03.609Z,12.37
2022-11-02T07:11:32.255Z,12.53
2022-11-02T07:14:00.897Z,12.35
2022-11-02T07:16:29.429Z,12.46
2022-11-02T07:18:58.109Z,13.03
2022-11-02T07:21:28.205Z,13.42
2022-11-02T07:23:56.858Z,13.33
2022-11-02T07:26:26.585Z,13.36
2022-11-02T07:28:58.317Z,13.46
2022-11-02T07:31:27.932Z,13.52
2022-11-02T07:33:56.665Z,13.15
2022-11-02T07:36:25.337Z,13.74
2022-11-02T07:38:55.580Z,14.03
2022-11-02T07:41:24.286Z,15.14
2022-11-02T07:43:52.709Z,16.35
2022-11-02T07:46:34.244Z,17.32
2022-11-02T07:49:03.012Z,17.78
2022-11-02T07:51:31.763Z,17.16
2022-11-02T07:54:02.828Z,17.65
2022-11-02T07:56:31.506Z,18.14
2022-11-02T07:59:00.174Z,17.41
2022-11-02T08:01:28.617Z,17.22
2022-11-02T08:03:57.553Z,16.90
2022-11-02T08:06:26.229Z,16.51
2022-11-02T08:08:54.856Z,16.37
2022-11-02T08:11:24.988Z,16.90
2022-11-02T08:13:53.310Z,17.27
2022-11-02T08:16:21.939Z,16.65
2022-11-02T08:18:50.680Z,16.08
2022-11-02T08:21:19.317Z,14.74
2022-11-02T08:23:47.999Z,14.14
2022-11-02T08:26:16.705Z,14.29
2022-11-02T08:28:46.400Z,13.97
2022-11-02T08:31:17.656Z,13.75
2022-11-02T08:33:46.946Z,13.63
2022-11-02T08:36:15.547Z,13.89
2022-11-02T08:38:44.220Z,13.73
2022-11-02T08:41:14.679Z,14.15
2022-11-02T08:43:43.134Z,14.40
2022-11-02T08:46:15.760Z,14.75
2022-11-02T08:48:45.665Z,14.72
2022-11-02T08:51:14.470Z,14.12
2022-11-02T08:53:47.257Z,13.34
2022-11-02T08:56:20.227Z,13.46
2022-11-02T08:58:55.832Z,13.45
2022-11-02T09:01:31.770Z,13.69
2022-11-02T09:04:04.093Z,14.07
2022-11-02T09:06:35.265Z,13.75
2022-11-02T09:09:04.289Z,14.06
2022-11-02T09:11:33.026Z,13.73
2022-11-02T09:14:01.826Z,13.62
2022-11-02T09:16:31.673Z,13.05
2022-11-02T09:19:00.583Z,12.73
2022-11-02T09:21:29.236Z,13.29
2022-11-02T09:23:57.930Z,13.13
2022-11-02T09:26:26.951Z,13.68
2022-11-02T09:28:55.255Z,14.54
2022-11-02T09:31:23.986Z,14.75
2022-11-02T09:33:54.261Z,13.64
2022-11-02T09:36:22.722Z,13.88
2022-11-02T09:38:51.556Z,13.81
2022-11-02T09:41:25.674Z,12.90
2022-11-02T09:44:01.487Z,12.83
2022-11-02T09:46:33.346Z,13.11
2022-11-02T09:49:05.683Z,13.02
2022-11-02T09:51:37.407Z,13.41
2022-11-02T09:54:13.088Z,13.15
2022-11-02T09:56:46.235Z,13.34
2022-11-02T09:59:16.526Z,12.97
2022-11-02T10:02:04.297Z,13.07
2022-11-02T10:05:17.599Z,13.30
2022-11-02T10:08:01.238Z,12.70
2022-11-02T10:10:35.654Z,13.41
2022-11-02T10:13:12.155Z,13.07
2022-11-02T10:15:45.137Z,12.69
2022-11-02T10:18:17.840Z,12.96
2022-11-02T10:20:48.139Z,13.98
2022-11-02T10:23:21.519Z,14.21
2022-11-02T10:25:50.749Z,14.31
2022-11-02T10:28:22.802Z,13.61
2022-11-02T10:30:53.659Z,14.02
2022-11-02T10:33:27.643Z,13.68
2022-11-02T10:36:19.527Z,14.15
2022-11-02T10:39:00.741Z,13.52
2022-11-02T10:41:41.337Z,14.02
2022-11-02T10:44:22.451Z,13.72
2022-11-02T10:47:00.541Z,13.71
2022-11-02T10:49:53.129Z,13.65
2022-11-02T10:52:22.397Z,13.99
2022-11-02T10:54:53.636Z,14.37
2022-11-02T10:57:25.595Z,14.64
2022-11-02T11:00:25.527Z,14.58
2022-11-02T11:03:10.119Z,14.17
2022-11-02T11:05:58.172Z,14.10
2022-11-02T11:08:32.620Z,14.73
2022-11-02T11:11:21.227Z,15.30
2022-11-02T11:16:48.204Z,15.23
2022-11-02T11:19:41.468Z,15.63
2022-11-02T11:22:28.254Z,15.43
2022-11-02T11:25:26.771Z,15.44
2022-11-02T11:27:58.363Z,16.32
2022-11-02T11:33:18.860Z,17.01
2022-11-02T11:35:50.765Z,20.02
2022-11-02T11:38:21.144Z,20.08
2022-11-02T11:40:53.950Z,20.17
2022-11-02T11:43:26.262Z,19.14
2022-11-02T11:46:00.467Z,17.28
2022-11-02T11:48:36.475Z,15.69
2022-11-02T11:51:06.260Z,14.63
2022-11-02T11:53:35.830Z,14.44
2022-11-02T11:56:04.743Z,13.98
2022-11-02T11:58:35.255Z,13.98
2022-11-02T12:01:10.724Z,15.07
2022-11-02T12:03:52.417Z,17.01
2022-11-02T12:06:26.509Z,18.34
2022-11-02T12:09:04.563Z,20.89
2022-11-02T12:11:42.451Z,22.02
2022-11-02T12:14:38.998Z,22.10
2022-11-02T12:17:21.469Z,21.19
2022-11-02T12:20:02.434Z,17.17
2022-11-02T12:22:35.407Z,14.59
2022-11-02T12:25:20.067Z,14.25
2022-11-02T12:27:54.445Z,15.18
2022-11-02T12:30:26.466Z,15.56
2022-11-02T12:33:14.223Z,15.27
2022-11-02T12:35:51.354Z,14.90
2022-11-02T12:38:43.019Z,14.86
2022-11-02T12:41:14.383Z,15.63
2022-11-02T12:43:45.261Z,16.84
2022-11-02T12:46:27.483Z,16.90
2022-11-02T12:49:07.653Z,17.49
2022-11-02T12:51:39.514Z,17.63
2022-11-02T12:54:12.973Z,18.46
2022-11-02T12:56:47.006Z,18.03
2022-11-02T12:59:20.092Z,18.91
2022-11-02T13:01:53.117Z,18.09
2022-11-02T13:04:26.244Z,18.00
2022-11-02T13:07:01.426Z,17.57
2022-11-02T13:09:32.049Z,17.39
2022-11-02T13:12:03.084Z,17.62
2022-11-02T13:14:36.074Z,17.24
2022-11-02T13:17:11.761Z,17.25
2022-11-02T13:19:43.630Z,17.23
2022-11-02T13:22:13.799Z,17.32
2022-11-02T13:24:46.882Z,16.73
2022-11-02T13:27:36.808Z,16.53
2022-11-02T13:30:06.980Z,16.07
2022-11-02T13:32:42.428Z,15.45
2022-11-02T13:35:17.838Z,15.36
2022-11-02T13:37:48.990Z,15.04
2022-11-02T13:40:22.339Z,15.04
2022-11-02T13:43:27.252Z,15.15
2022-11-02T13:46:04.272Z,15.49
2022-11-02T13:48:55.528Z,16.02
2022-11-02T13:51:33.936Z,15.84
2022-11-02T13:54:11.454Z,16.12
2022-11-02T13:56:45.587Z,15.12
2022-11-02T13:59:25.626Z,15.22
2022-11-02T14:02:05.824Z,14.60
2022-11-02T14:04:43.533Z,15.06
2022-11-02T14:07:33.671Z,15.04
2022-11-02T14:10:08.739Z,14.92
2022-11-02T14:12:44.766Z,15.48
2022-11-02T14:15:49.867Z,15.23
2022-11-02T14:18:32.016Z,16.35
2022-11-02T14:21:40.644Z,16.68
2022-11-02T14:24:42.911Z,15.86
2022-11-02T14:27:29.981Z,15.45
2022-11-02T14:29:59.378Z,14.83
2022-11-02T14:32:42.173Z,14.21
2022-11-02T14:35:31.473Z,14.06
2022-11-02T14:38:19.160Z,13.55
2022-11-02T14:40:53.322Z,13.27
2022-11-02T14:43:46.076Z,13.06
2022-11-02T14:46:25.510Z,12.92
2022-11-02T14:48:55.773Z,12.62
2022-11-02T14:51:26.378Z,12.41
2022-11-02T14:53:59.411Z,12.08
2022-11-02T14:56:48.567Z,12.02
2022-11-02T14:59:19.843Z,12.14
2022-11-02T15:01:52.036Z,12.00
2022-11-02T15:04:20.821Z,11.93
2022-11-02T15:06:55.039Z,11.53
2022-11-02T15:10:00.084Z,11.60
2022-11-02T15:12:38.802Z,11.45
2022-11-02T15:15:29.541Z,11.39
2022-11-02T15:18:16.868Z,11.43
2022-11-02T15:20:46.548Z,10.73
2022-11-02T15:23:31.445Z,10.91
2022-11-02T15:26:01.969Z,10.67
2022-11-02T15:28:34.270Z,10.91
2022-11-02T15:31:06.081Z,10.86
2022-11-02T15:33:38.679Z,10.70
2022-11-02T15:36:10.006Z,10.83
2022-11-02T15:38:40.500Z,10.71
2022-11-02T15:41:26.141Z,10.83
2022-11-02T15:44:19.794Z,10.96
2022-11-02T15:46:59.923Z,10.84
2022-11-02T15:49:43.402Z,10.87
2022-11-02T15:52:19.105Z,10.83
2022-11-02T15:54:58.076Z,10.73
2022-11-02T15:57:36.504Z,10.41
2022-11-02T16:00:15.782Z,10.45
2022-11-02T16:02:47.282Z,10.38
2022-11-02T16:05:21.771Z,10.22
2022-11-02T16:08:11.352Z,10.31
2022-11-02T16:10:40.443Z,10.12
2022-11-02T16:13:19.585Z,9.92
2022-11-02T16:15:49.203Z,9.99
2022-11-02T16:18:25.328Z,9.97
2022-11-02T16:20:55.756Z,10.07
2022-11-02T16:23:24.868Z,10.20
2022-11-02T16:25:54.464Z,10.06
2022-11-02T16:28:26.021Z,10.17
2022-11-02T16:31:03.397Z,10.43
2022-11-02T16:33:38.145Z,10.43
2022-11-02T16:36:07.447Z,10.40
2022-11-02T16:38:37.166Z,10.37
2022-11-02T16:41:09.061Z,10.39
2022-11-02T16:43:45.914Z,10.44
2022-11-02T16:46:17.288Z,10.47
2022-11-02T16:49:08.476Z,10.36
2022-11-02T16:51:37.753Z,10.26
2022-11-02T16:54:35.639Z,10.65
2022-11-02T16:57:11.411Z,10.46
2022-11-02T16:59:51.280Z,10.25
2022-11-02T17:02:30.596Z,10.02
2022-11-02T17:05:02.622Z,9.88
2022-11-02T17:07:40.961Z,9.85
2022-11-02T17:10:19.007Z,10.09
2022-11-02T17:12:52.867Z,10.08
2022-11-02T17:15:29.412Z,9.95
2022-11-02T17:18:26.157Z,9.92
2022-11-02T17:21:18.014Z,9.83
2022-11-02T17:23:48.629Z,9.89
2022-11-02T17:26:27.108Z,9.83
2022-11-02T17:28:56.357Z,9.49
2022-11-02T17:31:27.708Z,9.39
2022-11-02T17:33:58.370Z,9.29
2022-11-02T17:36:27.381Z,9.53
2022-11-02T17:38:56.464Z,9.61
2022-11-02T17:41:55.542Z,9.43
2022-11-02T17:44:24.089Z,9.61
2022-11-02T17:46:53.810Z,9.98
2022-11-02T17:49:22.502Z,9.83
2022-11-02T17:51:51.282Z,9.74
2022-11-02T17:54:20.150Z,9.74
2022-11-02T17:56:48.858Z,9.85
2022-11-02T17:59:17.604Z,9.76
2022-11-02T18:01:45.990Z,9.77
2022-11-02T18:04:16.086Z,9.86
2022-11-02T18:06:44.765Z,9.95
2022-11-02T18:09:14.809Z,9.78
2022-11-02T18:11:43.585Z,9.95
2022-11-02T18:14:15.849Z,9.84
2022-11-02T18:16:44.849Z,9.91
2022-11-02T18:19:15.777Z,10.08
2022-11-02T18:21:44.460Z,10.03
2022-11-02T18:24:13.085Z,10.08
2022-11-02T18:26:45.877Z,9.84
2022-11-02T18:29:15.744Z,9.89
2022-11-02T18:31:44.312Z,10.01
2022-11-02T18:34:13.054Z,10.08
2022-11-02T18:36:43.294Z,10.09
2022-11-02T18:39:11.931Z,10.09
2022-11-02T18:41:42.549Z,9.80
2022-11-02T18:44:15.274Z,9.80
2022-11-02T18:46:44.213Z,9.50
2022-11-02T18:49:12.910Z,9.50
2022-11-02T18:51:43.737Z,9.59
2022-11-02T18:54:13.248Z,9.39
2022-11-02T18:56:41.988Z,9.49
2022-11-02T18:59:11.088Z,9.19
2022-11-02T19:01:39.574Z,9.36
2022-11-02T19:04:10.858Z,9.31
2022-11-02T19:07:02.223Z,9.44
2022-11-02T19:09:31.748Z,9.63
2022-11-02T19:12:05.250Z,9.82
2022-11-02T19:14:36.429Z,9.52
2022-11-02T19:17:05.465Z,9.43
2022-11-02T19:19:34.356Z,9.34
2022-11-02T19:22:04.993Z,9.56
2022-11-02T19:24:34.203Z,9.64
2022-11-02T19:27:02.886Z,9.49
2022-11-02T19:29:31.632Z,9.79
2022-11-02T19:32:00.267Z,9.89
2022-11-02T19:34:28.613Z,9.36
2022-11-02T19:36:57.339Z,9.18
2022-11-02T19:39:27.705Z,9.13
2022-11-02T19:41:56.210Z,9.19
2022-11-02T19:44:24.874Z,9.04
2022-11-02T19:46:53.435Z,9.19
2022-11-02T19:49:22.116Z,9.26
2022-11-02T19:51:50.997Z,9.15
2022-11-02T19:54:19.959Z,9.32
2022-11-02T19:56:50.199Z,9.33
2022-11-02T19:59:18.891Z,9.32
2022-11-02T20:01:50.014Z,9.72
2022-11-02T20:04:18.736Z,9.46
2022-11-02T20:06:47.383Z,9.37
2022-11-02T20:09:17.639Z,9.46
2022-11-02T20:11:47.077Z,9.54
2022-11-02T20:14:19.508Z,9.54
2022-11-02T20:17:04.116Z,9.64
2022-11-02T20:19:33.266Z,9.65
2022-11-02T20:22:02.678Z,9.47
2022-11-02T20:24:31.421Z,9.54
2022-11-02T20:27:03.048Z,9.34
2022-11-02T20:29:33.296Z,9.34
2022-11-02T20:32:01.998Z,9.41
2022-11-02T20:34:30.673Z,9.57
2022-11-02T20:36:59.449Z,9.76
2022-11-02T20:39:28.226Z,9.78
2022-11-02T20:41:57.278Z,9.74
2022-11-02T20:44:25.890Z,10.01
2022-11-02T20:46:55.738Z,9.83
2022-11-02T20:49:51.363Z,9.80
2022-11-02T20:52:13.167Z,9.96
2022-11-02T20:54:41.834Z,9.77
2022-11-02T20:57:10.588Z,9.94
2022-11-02T20:59:39.326Z,9.73
2022-11-02T21:02:10.916Z,10.41
2022-11-02T21:04:39.449Z,10.01
2022-11-02T21:07:08.658Z,10.03
2022-11-02T21:09:37.984Z,10.15
2022-11-02T21:12:24.869Z,10.17
2022-11-02T21:14:53.563Z,10.27
2022-11-02T21:17:23.632Z,10.28
2022-11-02T21:19:58.157Z,10.32
2022-11-02T21:22:36.844Z,9.99
2022-11-02T21:25:06.070Z,9.77
2022-11-02T21:27:34.724Z,9.72
2022-11-02T21:30:03.450Z,9.78
2022-11-02T21:32:33.431Z,9.60
2022-11-02T21:35:02.416Z,9.52
2022-11-02T21:37:30.647Z,9.42
2022-11-02T21:39:59.320Z,9.52
2022-11-02T21:42:27.950Z,9.32
2022-11-02T21:44:56.528Z,9.22
2022-11-02T21:47:25.780Z,9.21
2022-11-02T21:49:55.518Z,9.31
2022-11-02T21:52:24.240Z,9.20
2022-11-02T21:54:52.882Z,9.16
2022-11-02T21:57:21.491Z,8.92
2022-11-02T21:59:50.146Z,8.88
2022-11-02T22:02:19.008Z,8.99
2022-11-02T22:04:53.639Z,8.86
2022-11-02T22:07:24.151Z,8.80
2022-11-02T22:09:52.884Z,8.92
2022-11-02T22:12:39.018Z,8.90
2022-11-02T22:15:09.376Z,8.58
2022-11-02T22:17:49.671Z,8.77
2022-11-02T22:20:18.785Z,8.55
2022-11-02T22:22:48.402Z,8.88
2022-11-02T22:25:17.127Z,8.65
2022-11-02T22:27:45.779Z,8.86
2022-11-02T22:30:15.264Z,8.87
2022-11-02T22:32:46.120Z,9.00
2022-11-02T22:35:14.900Z,9.02
2022-11-02T22:38:01.170Z,9.14
2022-11-02T22:40:32.041Z,9.29
2022-11-02T22:43:00.725Z,8.96
2022-11-02T22:45:29.367Z,8.92
2022-11-02T22:47:58.055Z,8.62
2022-11-02T22:50:27.891Z,8.68
2022-11-02T22:52:56.467Z,8.53
2022-11-02T22:55:25.028Z,8.42
2022-11-02T22:57:59.773Z,8.93
2022-11-02T23:00:28.795Z,8.74
2022-11-02T23:02:57.488Z,8.66
2022-11-02T23:05:26.258Z,8.29
2022-11-02T23:07:54.523Z,8.47
2022-11-02T23:10:37.387Z,8.75
2022-11-02T23:13:07.695Z,8.80
2022-11-02T23:15:36.837Z,8.58
2022-11-02T23:18:05.597Z,8.32
2022-11-02T23:20:33.261Z,8.35
2022-11-02T23:23:19.336Z,8.31
2022-11-02T23:25:55.631Z,8.34
2022-11-02T23:28:43.397Z,8.20
2022-11-02T23:31:29.679Z,7.90
2022-11-02T23:33:58.277Z,7.74
2022-11-02T23:36:25.845Z,7.80
2022-11-02T23:39:11.891Z,8.01
2022-11-02T23:41:41.677Z,8.07
2022-11-02T23:44:14.902Z,7.68
2022-11-02T23:46:44.401Z,7.88
2022-11-02T23:49:13.665Z,7.68
2022-11-02T23:51:59.786Z,7.65
2022-11-02T23:54:45.897Z,7.89
2022-11-02T23:57:14.736Z,7.62
2022-11-02T23:59:44.774Z,7.69
